Penasse, Minnesota
Current Conditions -  °F | °C
As of 5:34 PM on Saturday 22 Nov 2014 (Local Time) from KFGN Reporting Station
Overcast Overcast  
Wind Chill: 28°   Ceiling: 900
Heat Index: 34°   Visibility: 10mi
Dew Point: 30°   Wind: 7mph
Humidity: 87%   Direction: 110°ESE
Pressure: 29.5"   Gusts: NA
Location:  49.2652°N, 95.0542°W
Report Text: KFGN 222334Z AUTO 11006KT 10SM OVC009 01/M01 A2950 RMK AO2
Loading
Personal Weather Stations






























Interactive Weather Map New forecast layout! Learn more

10-Day Weather Forecast

Advertisements
Track Severe Weather on mobile